sensor_id;sensor_type;location;lat;lon;timestamp;P1;P2;P0
30342;PMS5003;17145;49.902;8.680;2024-02-28T00:02:02;6;6;
30342;PMS5003;17145;49.902;8.680;2024-02-28T00:04:29;4;4;
30342;PMS5003;17145;49.902;8.680;2024-02-28T00:06:56;4;4;
30342;PMS5003;17145;49.902;8.680;2024-02-28T00:09:24;6;6;
30342;PMS5003;17145;49.902;8.680;2024-02-28T00:11:51;6;6;
30342;PMS5003;17145;49.902;8.680;2024-02-28T00:14:19;4;4;
30342;PMS5003;17145;49.902;8.680;2024-02-28T00:16:46;6;4;
30342;PMS5003;17145;49.902;8.680;2024-02-28T00:19:14;4;3;
30342;PMS5003;17145;49.902;8.680;2024-02-28T00:21:41;3;3;
30342;PMS5003;17145;49.902;8.680;2024-02-28T00:24:08;3;3;
30342;PMS5003;17145;49.902;8.680;2024-02-28T00:26:37;3;2;
30342;PMS5003;17145;49.902;8.680;2024-02-28T00:29:07;3;3;
30342;PMS5003;17145;49.902;8.680;2024-02-28T00:31:34;2;2;
30342;PMS5003;17145;49.902;8.680;2024-02-28T00:34:02;3;3;
30342;PMS5003;17145;49.902;8.680;2024-02-28T00:36:29;3;3;
30342;PMS5003;17145;49.902;8.680;2024-02-28T00:38:57;4;4;
30342;PMS5003;17145;49.902;8.680;2024-02-28T00:41:24;4;3;
30342;PMS5003;17145;49.902;8.680;2024-02-28T00:43:51;4;4;
30342;PMS5003;17145;49.902;8.680;2024-02-28T00:46:19;3;3;
30342;PMS5003;17145;49.902;8.680;2024-02-28T00:48:46;3;3;
30342;PMS5003;17145;49.902;8.680;2024-02-28T00:51:14;4;4;
30342;PMS5003;17145;49.902;8.680;2024-02-28T00:53:41;4;3;
30342;PMS5003;17145;49.902;8.680;2024-02-28T00:56:09;3;3;
30342;PMS5003;17145;49.902;8.680;2024-02-28T00:58:36;3;3;
30342;PMS5003;17145;49.902;8.680;2024-02-28T01:01:03;3;2;
30342;PMS5003;17145;49.902;8.680;2024-02-28T01:03:31;2;2;
30342;PMS5003;17145;49.902;8.680;2024-02-28T01:05:58;2;2;
30342;PMS5003;17145;49.902;8.680;2024-02-28T01:08:25;3;3;
30342;PMS5003;17145;49.902;8.680;2024-02-28T01:10:53;3;3;
30342;PMS5003;17145;49.902;8.680;2024-02-28T01:13:20;3;3;
30342;PMS5003;17145;49.902;8.680;2024-02-28T01:15:48;3;3;
30342;PMS5003;17145;49.902;8.680;2024-02-28T01:18:15;3;3;
30342;PMS5003;17145;49.902;8.680;2024-02-28T01:20:43;2;2;
30342;PMS5003;17145;49.902;8.680;2024-02-28T01:23:10;4;4;
30342;PMS5003;17145;49.902;8.680;2024-02-28T01:25:37;3;3;
30342;PMS5003;17145;49.902;8.680;2024-02-28T01:28:05;4;3;
30342;PMS5003;17145;49.902;8.680;2024-02-28T01:30:32;4;4;
30342;PMS5003;17145;49.902;8.680;2024-02-28T01:32:59;3;3;
30342;PMS5003;17145;49.902;8.680;2024-02-28T01:35:27;2;2;
30342;PMS5003;17145;49.902;8.680;2024-02-28T01:37:54;2;2;
30342;PMS5003;17145;49.902;8.680;2024-02-28T01:40:21;2;2;
30342;PMS5003;17145;49.902;8.680;2024-02-28T01:42:49;2;2;
30342;PMS5003;17145;49.902;8.680;2024-02-28T01:45:16;2;2;
30342;PMS5003;17145;49.902;8.680;2024-02-28T01:47:43;2;2;
30342;PMS5003;17145;49.902;8.680;2024-02-28T01:50:11;2;2;
30342;PMS5003;17145;49.902;8.680;2024-02-28T01:52:39;2;2;
30342;PMS5003;17145;49.902;8.680;2024-02-28T01:55:07;3;3;
30342;PMS5003;17145;49.902;8.680;2024-02-28T01:57:35;1;1;
30342;PMS5003;17145;49.902;8.680;2024-02-28T02:00:04;1;1;
30342;PMS5003;17145;49.902;8.680;2024-02-28T02:02:33;2;2;
30342;PMS5003;17145;49.902;8.680;2024-02-28T02:05:00;2;2;
30342;PMS5003;17145;49.902;8.680;2024-02-28T02:07:28;2;2;
30342;PMS5003;17145;49.902;8.680;2024-02-28T02:09:55;2;2;
30342;PMS5003;17145;49.902;8.680;2024-02-28T02:12:23;2;2;
30342;PMS5003;17145;49.902;8.680;2024-02-28T02:14:50;3;2;
30342;PMS5003;17145;49.902;8.680;2024-02-28T02:17:17;2;2;
30342;PMS5003;17145;49.902;8.680;2024-02-28T02:19:45;2;2;
30342;PMS5003;17145;49.902;8.680;2024-02-28T02:22:13;1;1;
30342;PMS5003;17145;49.902;8.680;2024-02-28T02:24:40;2;2;
30342;PMS5003;17145;49.902;8.680;2024-02-28T02:27:08;1;1;
30342;PMS5003;17145;49.902;8.680;2024-02-28T02:29:35;2;2;
30342;PMS5003;17145;49.902;8.680;2024-02-28T02:32:02;1;1;
30342;PMS5003;17145;49.902;8.680;2024-02-28T02:34:30;3;2;
30342;PMS5003;17145;49.902;8.680;2024-02-28T02:36:57;2;2;
30342;PMS5003;17145;49.902;8.680;2024-02-28T02:39:25;1;1;
30342;PMS5003;17145;49.902;8.680;2024-02-28T02:41:52;1;1;
30342;PMS5003;17145;49.902;8.680;2024-02-28T02:44:19;4;4;
30342;PMS5003;17145;49.902;8.680;2024-02-28T02:46:47;2;2;
30342;PMS5003;17145;49.902;8.680;2024-02-28T02:49:14;2;2;
30342;PMS5003;17145;49.902;8.680;2024-02-28T02:51:42;1;1;
30342;PMS5003;17145;49.902;8.680;2024-02-28T02:54:09;1;1;
30342;PMS5003;17145;49.902;8.680;2024-02-28T02:56:37;1;1;
30342;PMS5003;17145;49.902;8.680;2024-02-28T02:59:08;1;1;
30342;PMS5003;17145;49.902;8.680;2024-02-28T03:01:36;1;1;
30342;PMS5003;17145;49.902;8.680;2024-02-28T03:04:03;1;1;
30342;PMS5003;17145;49.902;8.680;2024-02-28T03:06:31;3;3;
30342;PMS5003;17145;49.902;8.680;2024-02-28T03:08:58;2;2;
30342;PMS5003;17145;49.902;8.680;2024-02-28T03:11:26;2;2;
30342;PMS5003;17145;49.902;8.680;2024-02-28T03:13:53;3;3;
30342;PMS5003;17145;49.902;8.680;2024-02-28T03:16:20;2;2;
30342;PMS5003;17145;49.902;8.680;2024-02-28T03:18:48;3;3;
30342;PMS5003;17145;49.902;8.680;2024-02-28T03:21:15;2;2;
30342;PMS5003;17145;49.902;8.680;2024-02-28T03:23:43;2;2;
30342;PMS5003;17145;49.902;8.680;2024-02-28T03:26:11;2;2;
30342;PMS5003;17145;49.902;8.680;2024-02-28T03:28:38;2;2;
30342;PMS5003;17145;49.902;8.680;2024-02-28T03:31:05;1;1;
30342;PMS5003;17145;49.902;8.680;2024-02-28T03:33:33;2;2;
30342;PMS5003;17145;49.902;8.680;2024-02-28T03:36:00;3;3;
30342;PMS5003;17145;49.902;8.680;2024-02-28T03:38:27;3;3;
30342;PMS5003;17145;49.902;8.680;2024-02-28T03:40:55;4;3;
30342;PMS5003;17145;49.902;8.680;2024-02-28T03:43:22;1;1;
30342;PMS5003;17145;49.902;8.680;2024-02-28T03:45:49;2;1;
30342;PMS5003;17145;49.902;8.680;2024-02-28T03:48:17;1;1;
30342;PMS5003;17145;49.902;8.680;2024-02-28T03:50:44;2;1;
30342;PMS5003;17145;49.902;8.680;2024-02-28T03:53:12;1;1;
30342;PMS5003;17145;49.902;8.680;2024-02-28T03:55:39;3;3;
30342;PMS5003;17145;49.902;8.680;2024-02-28T03:58:07;1;1;
30342;PMS5003;17145;49.902;8.680;2024-02-28T04:00:34;1;1;
30342;PMS5003;17145;49.902;8.680;2024-02-28T04:03:01;0;0;
30342;PMS5003;17145;49.902;8.680;2024-02-28T04:05:29;1;1;
30342;PMS5003;17145;49.902;8.680;2024-02-28T04:07:57;12;12;
30342;PMS5003;17145;49.902;8.680;2024-02-28T04:10:24;2;2;
30342;PMS5003;17145;49.902;8.680;2024-02-28T04:12:51;1;1;
30342;PMS5003;17145;49.902;8.680;2024-02-28T04:15:19;1;1;
30342;PMS5003;17145;49.902;8.680;2024-02-28T04:17:46;2;1;
30342;PMS5003;17145;49.902;8.680;2024-02-28T04:20:14;2;2;
30342;PMS5003;17145;49.902;8.680;2024-02-28T04:22:42;3;3;
30342;PMS5003;17145;49.902;8.680;2024-02-28T04:25:09;3;3;
30342;PMS5003;17145;49.902;8.680;2024-02-28T04:27:36;4;4;
30342;PMS5003;17145;49.902;8.680;2024-02-28T04:30:05;5;4;
30342;PMS5003;17145;49.902;8.680;2024-02-28T04:32:33;1;1;
30342;PMS5003;17145;49.902;8.680;2024-02-28T04:35:00;1;1;
30342;PMS5003;17145;49.902;8.680;2024-02-28T04:37:28;2;2;
30342;PMS5003;17145;49.902;8.680;2024-02-28T04:39:55;1;1;
30342;PMS5003;17145;49.902;8.680;2024-02-28T04:42:23;1;1;
30342;PMS5003;17145;49.902;8.680;2024-02-28T04:44:50;1;1;
30342;PMS5003;17145;49.902;8.680;2024-02-28T04:47:17;1;1;
30342;PMS5003;17145;49.902;8.680;2024-02-28T04:49:45;2;2;
30342;PMS5003;17145;49.902;8.680;2024-02-28T04:52:12;9;7;
30342;PMS5003;17145;49.902;8.680;2024-02-28T04:54:40;1;1;
30342;PMS5003;17145;49.902;8.680;2024-02-28T04:57:07;1;1;
30342;PMS5003;17145;49.902;8.680;2024-02-28T04:59:35;1;1;
30342;PMS5003;17145;49.902;8.680;2024-02-28T05:02:03;1;1;
30342;PMS5003;17145;49.902;8.680;2024-02-28T05:04:30;1;1;
30342;PMS5003;17145;49.902;8.680;2024-02-28T05:06:57;6;6;
30342;PMS5003;17145;49.902;8.680;2024-02-28T05:09:26;1;1;
30342;PMS5003;17145;49.902;8.680;2024-02-28T05:11:53;2;2;
30342;PMS5003;17145;49.902;8.680;2024-02-28T05:14:21;2;2;
30342;PMS5003;17145;49.902;8.680;2024-02-28T05:16:48;1;1;
30342;PMS5003;17145;49.902;8.680;2024-02-28T05:19:15;9;9;
30342;PMS5003;17145;49.902;8.680;2024-02-28T05:21:43;1;1;
30342;PMS5003;17145;49.902;8.680;2024-02-28T05:24:11;2;1;
30342;PMS5003;17145;49.902;8.680;2024-02-28T05:26:40;1;1;
30342;PMS5003;17145;49.902;8.680;2024-02-28T05:29:07;2;2;
30342;PMS5003;17145;49.902;8.680;2024-02-28T05:31:34;1;1;
30342;PMS5003;17145;49.902;8.680;2024-02-28T05:34:02;2;2;
30342;PMS5003;17145;49.902;8.680;2024-02-28T05:36:29;1;1;
30342;PMS5003;17145;49.902;8.680;2024-02-28T05:38:58;2;2;
30342;PMS5003;17145;49.902;8.680;2024-02-28T05:41:27;2;2;
30342;PMS5003;17145;49.902;8.680;2024-02-28T05:43:54;2;1;
30342;PMS5003;17145;49.902;8.680;2024-02-28T05:46:21;3;3;
30342;PMS5003;17145;49.902;8.680;2024-02-28T05:48:49;2;2;
30342;PMS5003;17145;49.902;8.680;2024-02-28T05:51:16;2;2;
30342;PMS5003;17145;49.902;8.680;2024-02-28T05:53:44;1;1;
30342;PMS5003;17145;49.902;8.680;2024-02-28T05:56:11;1;1;
30342;PMS5003;17145;49.902;8.680;2024-02-28T05:58:39;2;2;
30342;PMS5003;17145;49.902;8.680;2024-02-28T06:01:06;3;2;
30342;PMS5003;17145;49.902;8.680;2024-02-28T06:03:33;1;1;
30342;PMS5003;17145;49.902;8.680;2024-02-28T06:06:00;2;2;
30342;PMS5003;17145;49.902;8.680;2024-02-28T06:08:28;3;2;
30342;PMS5003;17145;49.902;8.680;2024-02-28T06:10:56;1;1;
30342;PMS5003;17145;49.902;8.680;2024-02-28T06:13:23;1;1;
30342;PMS5003;17145;49.902;8.680;2024-02-28T06:15:50;1;1;
30342;PMS5003;17145;49.902;8.680;2024-02-28T06:18:18;1;1;
30342;PMS5003;17145;49.902;8.680;2024-02-28T06:20:45;3;3;
30342;PMS5003;17145;49.902;8.680;2024-02-28T06:23:13;5;3;
30342;PMS5003;17145;49.902;8.680;2024-02-28T06:25:40;2;1;
30342;PMS5003;17145;49.902;8.680;2024-02-28T06:28:08;2;2;
30342;PMS5003;17145;49.902;8.680;2024-02-28T06:30:35;2;2;
30342;PMS5003;17145;49.902;8.680;2024-02-28T06:33:03;2;2;
30342;PMS5003;17145;49.902;8.680;2024-02-28T06:35:31;5;3;
30342;PMS5003;17145;49.902;8.680;2024-02-28T06:37:58;2;2;
30342;PMS5003;17145;49.902;8.680;2024-02-28T06:40:25;2;1;
30342;PMS5003;17145;49.902;8.680;2024-02-28T06:42:52;3;2;
30342;PMS5003;17145;49.902;8.680;2024-02-28T06:45:20;2;2;
30342;PMS5003;17145;49.902;8.680;2024-02-28T06:47:47;3;3;
30342;PMS5003;17145;49.902;8.680;2024-02-28T06:50:15;2;2;
30342;PMS5003;17145;49.902;8.680;2024-02-28T06:52:42;3;3;
30342;PMS5003;17145;49.902;8.680;2024-02-28T06:55:10;7;7;
30342;PMS5003;17145;49.902;8.680;2024-02-28T06:57:37;7;7;
30342;PMS5003;17145;49.902;8.680;2024-02-28T07:00:06;12;12;
30342;PMS5003;17145;49.902;8.680;2024-02-28T07:02:36;12;10;
30342;PMS5003;17145;49.902;8.680;2024-02-28T07:05:04;7;6;
30342;PMS5003;17145;49.902;8.680;2024-02-28T07:07:31;7;7;
30342;PMS5003;17145;49.902;8.680;2024-02-28T07:09:58;6;6;
30342;PMS5003;17145;49.902;8.680;2024-02-28T07:12:26;5;5;
30342;PMS5003;17145;49.902;8.680;2024-02-28T07:14:53;5;3;
30342;PMS5003;17145;49.902;8.680;2024-02-28T07:17:21;5;5;
30342;PMS5003;17145;49.902;8.680;2024-02-28T07:19:48;5;3;
30342;PMS5003;17145;49.902;8.680;2024-02-28T07:22:16;3;3;
30342;PMS5003;17145;49.902;8.680;2024-02-28T07:24:44;5;3;
30342;PMS5003;17145;49.902;8.680;2024-02-28T07:27:11;3;3;
30342;PMS5003;17145;49.902;8.680;2024-02-28T07:29:39;3;3;
30342;PMS5003;17145;49.902;8.680;2024-02-28T07:32:06;3;3;
30342;PMS5003;17145;49.902;8.680;2024-02-28T07:34:33;3;3;
30342;PMS5003;17145;49.902;8.680;2024-02-28T07:37:01;2;2;
30342;PMS5003;17145;49.902;8.680;2024-02-28T07:39:28;3;3;
30342;PMS5003;17145;49.902;8.680;2024-02-28T07:41:57;3;3;
30342;PMS5003;17145;49.902;8.680;2024-02-28T07:44:25;5;3;
30342;PMS5003;17145;49.902;8.680;2024-02-28T07:46:52;5;2;
30342;PMS5003;17145;49.902;8.680;2024-02-28T07:49:20;3;3;
30342;PMS5003;17145;49.902;8.680;2024-02-28T07:51:47;3;2;
30342;PMS5003;17145;49.902;8.680;2024-02-28T07:54:15;3;3;
30342;PMS5003;17145;49.902;8.680;2024-02-28T07:56:43;2;2;
30342;PMS5003;17145;49.902;8.680;2024-02-28T07:59:11;2;2;
30342;PMS5003;17145;49.902;8.680;2024-02-28T08:01:38;3;3;
30342;PMS5003;17145;49.902;8.680;2024-02-28T08:04:05;3;3;
30342;PMS5003;17145;49.902;8.680;2024-02-28T08:06:32;2;2;
30342;PMS5003;17145;49.902;8.680;2024-02-28T08:09:00;3;3;
30342;PMS5003;17145;49.902;8.680;2024-02-28T08:11:27;3;3;
30342;PMS5003;17145;49.902;8.680;2024-02-28T08:13:54;3;3;
30342;PMS5003;17145;49.902;8.680;2024-02-28T08:16:22;3;3;
30342;PMS5003;17145;49.902;8.680;2024-02-28T08:18:52;3;3;
30342;PMS5003;17145;49.902;8.680;2024-02-28T08:21:19;3;3;
30342;PMS5003;17145;49.902;8.680;2024-02-28T08:23:47;6;5;
30342;PMS5003;17145;49.902;8.680;2024-02-28T08:26:14;3;3;
30342;PMS5003;17145;49.902;8.680;2024-02-28T08:28:41;6;5;
30342;PMS5003;17145;49.902;8.680;2024-02-28T08:31:09;5;3;
30342;PMS5003;17145;49.902;8.680;2024-02-28T08:33:36;6;6;
30342;PMS5003;17145;49.902;8.680;2024-02-28T08:36:04;3;3;
30342;PMS5003;17145;49.902;8.680;2024-02-28T08:38:31;5;5;
30342;PMS5003;17145;49.902;8.680;2024-02-28T08:40:59;5;5;
30342;PMS5003;17145;49.902;8.680;2024-02-28T08:43:26;6;5;
30342;PMS5003;17145;49.902;8.680;2024-02-28T08:45:54;3;3;
30342;PMS5003;17145;49.902;8.680;2024-02-28T08:48:21;6;5;
30342;PMS5003;17145;49.902;8.680;2024-02-28T08:50:49;4;3;
30342;PMS5003;17145;49.902;8.680;2024-02-28T08:53:16;5;3;
30342;PMS5003;17145;49.902;8.680;2024-02-28T08:55:43;5;5;
30342;PMS5003;17145;49.902;8.680;2024-02-28T08:58:11;5;5;
30342;PMS5003;17145;49.902;8.680;2024-02-28T09:00:38;5;5;
30342;PMS5003;17145;49.902;8.680;2024-02-28T09:03:05;5;5;
30342;PMS5003;17145;49.902;8.680;2024-02-28T09:05:33;5;5;
30342;PMS5003;17145;49.902;8.680;2024-02-28T09:08:00;3;3;
30342;PMS5003;17145;49.902;8.680;2024-02-28T09:10:28;5;5;
30342;PMS5003;17145;49.902;8.680;2024-02-28T09:12:55;5;5;
30342;PMS5003;17145;49.902;8.680;2024-02-28T09:15:23;5;5;
30342;PMS5003;17145;49.902;8.680;2024-02-28T09:17:50;7;6;
30342;PMS5003;17145;49.902;8.680;2024-02-28T09:20:18;8;7;
30342;PMS5003;17145;49.902;8.680;2024-02-28T09:22:45;5;5;
30342;PMS5003;17145;49.902;8.680;2024-02-28T09:25:12;5;5;
30342;PMS5003;17145;49.902;8.680;2024-02-28T09:27:40;5;5;
30342;PMS5003;17145;49.902;8.680;2024-02-28T09:30:08;3;3;
30342;PMS5003;17145;49.902;8.680;2024-02-28T09:32:36;3;2;
30342;PMS5003;17145;49.902;8.680;2024-02-28T09:35:03;3;3;
30342;PMS5003;17145;49.902;8.680;2024-02-28T09:37:31;3;3;
30342;PMS5003;17145;49.902;8.680;2024-02-28T09:39:59;7;5;
30342;PMS5003;17145;49.902;8.680;2024-02-28T09:42:26;5;5;
30342;PMS5003;17145;49.902;8.680;2024-02-28T09:44:54;6;5;
30342;PMS5003;17145;49.902;8.680;2024-02-28T09:47:22;6;6;
30342;PMS5003;17145;49.902;8.680;2024-02-28T09:49:50;7;5;
30342;PMS5003;17145;49.902;8.680;2024-02-28T09:52:20;3;3;
30342;PMS5003;17145;49.902;8.680;2024-02-28T09:54:47;5;3;
30342;PMS5003;17145;49.902;8.680;2024-02-28T09:57:14;6;5;
30342;PMS5003;17145;49.902;8.680;2024-02-28T09:59:42;5;3;
30342;PMS5003;17145;49.902;8.680;2024-02-28T10:02:10;5;5;
30342;PMS5003;17145;49.902;8.680;2024-02-28T10:04:38;4;3;
30342;PMS5003;17145;49.902;8.680;2024-02-28T10:07:10;4;4;
30342;PMS5003;17145;49.902;8.680;2024-02-28T10:09:37;4;3;
30342;PMS5003;17145;49.902;8.680;2024-02-28T10:12:05;6;6;
30342;PMS5003;17145;49.902;8.680;2024-02-28T10:14:33;6;4;
30342;PMS5003;17145;49.902;8.680;2024-02-28T10:17:00;7;4;
30342;PMS5003;17145;49.902;8.680;2024-02-28T10:19:27;3;3;
30342;PMS5003;17145;49.902;8.680;2024-02-28T10:21:55;5;5;
30342;PMS5003;17145;49.902;8.680;2024-02-28T10:24:23;4;4;
30342;PMS5003;17145;49.902;8.680;2024-02-28T10:26:51;3;3;
30342;PMS5003;17145;49.902;8.680;2024-02-28T10:29:18;5;3;
30342;PMS5003;17145;49.902;8.680;2024-02-28T10:31:46;6;4;
30342;PMS5003;17145;49.902;8.680;2024-02-28T10:34:14;4;4;
30342;PMS5003;17145;49.902;8.680;2024-02-28T10:36:44;6;6;
30342;PMS5003;17145;49.902;8.680;2024-02-28T10:39:12;6;3;
30342;PMS5003;17145;49.902;8.680;2024-02-28T10:41:41;4;4;
30342;PMS5003;17145;49.902;8.680;2024-02-28T10:44:09;3;3;
30342;PMS5003;17145;49.902;8.680;2024-02-28T10:46:39;5;5;
30342;PMS5003;17145;49.902;8.680;2024-02-28T10:49:06;3;3;
30342;PMS5003;17145;49.902;8.680;2024-02-28T10:51:36;5;3;
30342;PMS5003;17145;49.902;8.680;2024-02-28T10:54:07;3;3;
30342;PMS5003;17145;49.902;8.680;2024-02-28T10:56:35;2;2;
30342;PMS5003;17145;49.902;8.680;2024-02-28T10:59:06;6;4;
30342;PMS5003;17145;49.902;8.680;2024-02-28T11:01:34;3;3;
30342;PMS5003;17145;49.902;8.680;2024-02-28T11:04:02;3;3;
30342;PMS5003;17145;49.902;8.680;2024-02-28T11:06:31;6;5;
30342;PMS5003;17145;49.902;8.680;2024-02-28T11:08:59;6;6;
30342;PMS5003;17145;49.902;8.680;2024-02-28T11:11:31;6;6;
30342;PMS5003;17145;49.902;8.680;2024-02-28T11:13:59;4;4;
30342;PMS5003;17145;49.902;8.680;2024-02-28T11:16:27;6;6;
30342;PMS5003;17145;49.902;8.680;2024-02-28T11:18:55;4;3;
30342;PMS5003;17145;49.902;8.680;2024-02-28T11:21:24;3;3;
30342;PMS5003;17145;49.902;8.680;2024-02-28T11:23:57;4;4;
30342;PMS5003;17145;49.902;8.680;2024-02-28T11:26:25;3;3;
30342;PMS5003;17145;49.902;8.680;2024-02-28T11:28:53;3;3;
30342;PMS5003;17145;49.902;8.680;2024-02-28T11:31:21;2;2;
30342;PMS5003;17145;49.902;8.680;2024-02-28T11:33:48;4;4;
30342;PMS5003;17145;49.902;8.680;2024-02-28T11:36:15;3;3;
30342;PMS5003;17145;49.902;8.680;2024-02-28T11:38:43;3;3;
30342;PMS5003;17145;49.902;8.680;2024-02-28T11:41:10;3;3;
30342;PMS5003;17145;49.902;8.680;2024-02-28T11:43:38;3;3;
30342;PMS5003;17145;49.902;8.680;2024-02-28T11:46:07;4;4;
30342;PMS5003;17145;49.902;8.680;2024-02-28T11:48:35;6;4;
30342;PMS5003;17145;49.902;8.680;2024-02-28T11:51:03;4;3;
30342;PMS5003;17145;49.902;8.680;2024-02-28T11:53:30;3;3;
30342;PMS5003;17145;49.902;8.680;2024-02-28T11:55:57;3;3;
30342;PMS5003;17145;49.902;8.680;2024-02-28T11:58:25;6;3;
30342;PMS5003;17145;49.902;8.680;2024-02-28T12:00:53;4;4;
30342;PMS5003;17145;49.902;8.680;2024-02-28T12:03:21;3;3;
30342;PMS5003;17145;49.902;8.680;2024-02-28T12:05:49;3;3;
30342;PMS5003;17145;49.902;8.680;2024-02-28T12:08:18;3;3;
30342;PMS5003;17145;49.902;8.680;2024-02-28T12:10:46;3;3;
30342;PMS5003;17145;49.902;8.680;2024-02-28T12:13:16;3;3;
30342;PMS5003;17145;49.902;8.680;2024-02-28T12:15:45;3;3;
30342;PMS5003;17145;49.902;8.680;2024-02-28T12:18:14;6;4;
30342;PMS5003;17145;49.902;8.680;2024-02-28T12:20:42;7;4;
30342;PMS5003;17145;49.902;8.680;2024-02-28T12:23:09;3;3;
30342;PMS5003;17145;49.902;8.680;2024-02-28T12:25:37;6;6;
30342;PMS5003;17145;49.902;8.680;2024-02-28T12:28:04;4;4;
30342;PMS5003;17145;49.902;8.680;2024-02-28T12:30:39;4;4;
30342;PMS5003;17145;49.902;8.680;2024-02-28T12:33:07;6;6;
30342;PMS5003;17145;49.902;8.680;2024-02-28T12:35:35;4;4;
30342;PMS5003;17145;49.902;8.680;2024-02-28T12:38:02;2;2;
30342;PMS5003;17145;49.902;8.680;2024-02-28T12:40:29;4;4;
30342;PMS5003;17145;49.902;8.680;2024-02-28T12:42:57;3;3;
30342;PMS5003;17145;49.902;8.680;2024-02-28T12:45:24;6;4;
30342;PMS5003;17145;49.902;8.680;2024-02-28T12:47:52;3;3;
30342;PMS5003;17145;49.902;8.680;2024-02-28T12:50:19;6;6;
30342;PMS5003;17145;49.902;8.680;2024-02-28T12:52:47;6;4;
30342;PMS5003;17145;49.902;8.680;2024-02-28T12:55:14;6;4;
30342;PMS5003;17145;49.902;8.680;2024-02-28T12:57:42;4;4;
30342;PMS5003;17145;49.902;8.680;2024-02-28T13:00:09;4;4;
30342;PMS5003;17145;49.902;8.680;2024-02-28T13:02:37;4;4;
30342;PMS5003;17145;49.902;8.680;2024-02-28T13:05:05;3;3;
30342;PMS5003;17145;49.902;8.680;2024-02-28T13:07:32;3;3;
30342;PMS5003;17145;49.902;8.680;2024-02-28T13:10:00;6;4;
30342;PMS5003;17145;49.902;8.680;2024-02-28T13:12:27;4;4;
30342;PMS5003;17145;49.902;8.680;2024-02-28T13:14:54;3;3;
30342;PMS5003;17145;49.902;8.680;2024-02-28T13:17:22;4;4;
30342;PMS5003;17145;49.902;8.680;2024-02-28T13:19:49;3;3;
30342;PMS5003;17145;49.902;8.680;2024-02-28T13:22:17;4;4;
30342;PMS5003;17145;49.902;8.680;2024-02-28T13:24:45;7;6;
30342;PMS5003;17145;49.902;8.680;2024-02-28T13:27:12;6;6;
30342;PMS5003;17145;49.902;8.680;2024-02-28T13:29:39;7;6;
30342;PMS5003;17145;49.902;8.680;2024-02-28T13:32:07;4;4;
30342;PMS5003;17145;49.902;8.680;2024-02-28T13:34:34;6;4;
30342;PMS5003;17145;49.902;8.680;2024-02-28T13:37:01;7;4;
30342;PMS5003;17145;49.902;8.680;2024-02-28T13:39:29;7;7;
30342;PMS5003;17145;49.902;8.680;2024-02-28T13:41:56;4;4;
30342;PMS5003;17145;49.902;8.680;2024-02-28T13:44:24;6;6;
30342;PMS5003;17145;49.902;8.680;2024-02-28T13:46:51;6;6;
30342;PMS5003;17145;49.902;8.680;2024-02-28T13:49:19;4;4;
30342;PMS5003;17145;49.902;8.680;2024-02-28T13:51:46;7;7;
30342;PMS5003;17145;49.902;8.680;2024-02-28T13:54:14;6;6;
30342;PMS5003;17145;49.902;8.680;2024-02-28T13:56:41;4;4;
30342;PMS5003;17145;49.902;8.680;2024-02-28T13:59:08;7;6;
30342;PMS5003;17145;49.902;8.680;2024-02-28T14:01:36;6;6;
30342;PMS5003;17145;49.902;8.680;2024-02-28T14:04:03;4;4;
30342;PMS5003;17145;49.902;8.680;2024-02-28T14:06:31;7;6;
30342;PMS5003;17145;49.902;8.680;2024-02-28T14:08:58;6;4;
30342;PMS5003;17145;49.902;8.680;2024-02-28T14:11:26;6;6;
30342;PMS5003;17145;49.902;8.680;2024-02-28T14:13:53;7;4;
30342;PMS5003;17145;49.902;8.680;2024-02-28T14:16:20;6;6;
30342;PMS5003;17145;49.902;8.680;2024-02-28T14:18:48;7;7;
30342;PMS5003;17145;49.902;8.680;2024-02-28T14:21:15;6;6;
30342;PMS5003;17145;49.902;8.680;2024-02-28T14:23:43;4;4;
30342;PMS5003;17145;49.902;8.680;2024-02-28T14:26:10;4;4;
30342;PMS5003;17145;49.902;8.680;2024-02-28T14:28:37;6;6;
30342;PMS5003;17145;49.902;8.680;2024-02-28T14:31:05;6;6;
30342;PMS5003;17145;49.902;8.680;2024-02-28T14:33:32;6;6;
30342;PMS5003;17145;49.902;8.680;2024-02-28T14:36:00;7;6;
30342;PMS5003;17145;49.902;8.680;2024-02-28T14:38:27;6;5;
30342;PMS5003;17145;49.902;8.680;2024-02-28T14:40:55;6;4;
30342;PMS5003;17145;49.902;8.680;2024-02-28T14:43:25;7;6;
30342;PMS5003;17145;49.902;8.680;2024-02-28T14:45:53;6;6;
30342;PMS5003;17145;49.902;8.680;2024-02-28T14:48:20;5;5;
30342;PMS5003;17145;49.902;8.680;2024-02-28T14:50:47;7;5;
30342;PMS5003;17145;49.902;8.680;2024-02-28T14:53:15;5;5;
30342;PMS5003;17145;49.902;8.680;2024-02-28T14:55:42;6;6;
30342;PMS5003;17145;49.902;8.680;2024-02-28T14:58:10;6;6;
30342;PMS5003;17145;49.902;8.680;2024-02-28T15:00:37;5;5;
30342;PMS5003;17145;49.902;8.680;2024-02-28T15:03:05;6;6;
30342;PMS5003;17145;49.902;8.680;2024-02-28T15:05:32;6;5;
30342;PMS5003;17145;49.902;8.680;2024-02-28T15:07:59;7;6;
30342;PMS5003;17145;49.902;8.680;2024-02-28T15:10:26;5;5;
30342;PMS5003;17145;49.902;8.680;2024-02-28T15:12:54;5;5;
30342;PMS5003;17145;49.902;8.680;2024-02-28T15:15:21;7;7;
30342;PMS5003;17145;49.902;8.680;2024-02-28T15:17:48;6;6;
30342;PMS5003;17145;49.902;8.680;2024-02-28T15:20:16;6;6;
30342;PMS5003;17145;49.902;8.680;2024-02-28T15:22:43;7;7;
30342;PMS5003;17145;49.902;8.680;2024-02-28T15:25:11;6;5;
30342;PMS5003;17145;49.902;8.680;2024-02-28T15:27:38;5;5;
30342;PMS5003;17145;49.902;8.680;2024-02-28T15:30:06;5;5;
30342;PMS5003;17145;49.902;8.680;2024-02-28T15:32:34;5;5;
30342;PMS5003;17145;49.902;8.680;2024-02-28T15:35:01;6;6;
30342;PMS5003;17145;49.902;8.680;2024-02-28T15:37:29;6;5;
30342;PMS5003;17145;49.902;8.680;2024-02-28T15:39:56;7;7;
30342;PMS5003;17145;49.902;8.680;2024-02-28T15:42:24;6;6;
30342;PMS5003;17145;49.902;8.680;2024-02-28T15:44:51;5;5;
30342;PMS5003;17145;49.902;8.680;2024-02-28T15:47:18;7;6;
30342;PMS5003;17145;49.902;8.680;2024-02-28T15:49:46;8;7;
30342;PMS5003;17145;49.902;8.680;2024-02-28T15:52:13;6;6;
30342;PMS5003;17145;49.902;8.680;2024-02-28T15:54:41;6;6;
30342;PMS5003;17145;49.902;8.680;2024-02-28T15:57:09;6;6;
30342;PMS5003;17145;49.902;8.680;2024-02-28T15:59:36;6;6;
30342;PMS5003;17145;49.902;8.680;2024-02-28T16:02:04;7;7;
30342;PMS5003;17145;49.902;8.680;2024-02-28T16:04:32;6;5;
30342;PMS5003;17145;49.902;8.680;2024-02-28T16:06:59;5;3;
30342;PMS5003;17145;49.902;8.680;2024-02-28T16:09:27;10;7;
30342;PMS5003;17145;49.902;8.680;2024-02-28T16:11:54;6;6;
30342;PMS5003;17145;49.902;8.680;2024-02-28T16:14:22;7;6;
30342;PMS5003;17145;49.902;8.680;2024-02-28T16:16:49;7;6;
30342;PMS5003;17145;49.902;8.680;2024-02-28T16:19:17;7;7;
30342;PMS5003;17145;49.902;8.680;2024-02-28T16:21:45;5;5;
30342;PMS5003;17145;49.902;8.680;2024-02-28T16:24:13;7;7;
30342;PMS5003;17145;49.902;8.680;2024-02-28T16:26:41;6;6;
30342;PMS5003;17145;49.902;8.680;2024-02-28T16:29:09;8;7;
30342;PMS5003;17145;49.902;8.680;2024-02-28T16:31:36;7;7;
30342;PMS5003;17145;49.902;8.680;2024-02-28T16:34:04;6;6;
30342;PMS5003;17145;49.902;8.680;2024-02-28T16:36:31;6;6;
30342;PMS5003;17145;49.902;8.680;2024-02-28T16:38:59;7;6;
30342;PMS5003;17145;49.902;8.680;2024-02-28T16:41:26;6;6;
30342;PMS5003;17145;49.902;8.680;2024-02-28T16:43:53;6;6;
30342;PMS5003;17145;49.902;8.680;2024-02-28T16:46:21;5;5;
30342;PMS5003;17145;49.902;8.680;2024-02-28T16:48:48;5;5;
30342;PMS5003;17145;49.902;8.680;2024-02-28T16:51:16;7;7;
30342;PMS5003;17145;49.902;8.680;2024-02-28T16:53:43;6;6;